Time,TemperatureF,DewpointF,PressureIn,WindDirection,WindDirectionDegrees,WindSpeedMPH,WindSpeedGustMPH,Humidity,HourlyPrecipIn,Conditions,Clouds,dailyrainin,SoftwareType,DateUTC
2013-04-06 00:00:00,41.6,20.6,29.87,North,0,0.0,0.0,43,0.00,,,0.00,WUHU216HW,2013-04-06 04:00:00,
2013-04-06 00:02:00,41.4,21.0,29.87,North,0,0.0,0.0,44,0.00,,,0.00,WUHU216HW,2013-04-06 04:02:00,
2013-04-06 00:07:00,41.0,20.6,29.87,North,0,0.0,0.0,44,0.00,,,0.00,WUHU216HW,2013-04-06 04:07:00,
2013-04-06 00:12:00,40.7,20.8,29.87,North,0,0.0,0.0,45,0.00,,,0.00,WUHU216HW,2013-04-06 04:12:00,
2013-04-06 00:18:00,40.7,20.8,29.87,North,0,0.0,0.0,45,0.00,,,0.00,WUHU216HW,2013-04-06 04:18:00,
2013-04-06 00:23:00,40.7,20.8,29.87,North,0,0.0,0.0,45,0.00,,,0.00,WUHU216HW,2013-04-06 04:23:00,
2013-04-06 00:28:00,40.7,20.8,29.87,North,0,0.0,0.0,45,0.00,,,0.00,WUHU216HW,2013-04-06 04:28:00,
2013-04-06 00:33:00,40.7,20.8,29.88,North,0,0.0,0.0,45,0.00,,,0.00,WUHU216HW,2013-04-06 04:33:00,
2013-04-06 00:38:00,40.5,20.7,29.88,North,0,0.0,0.0,45,0.00,,,0.00,WUHU216HW,2013-04-06 04:38:00,
2013-04-06 00:43:00,40.3,21.1,29.88,North,0,0.0,0.0,46,0.00,,,0.00,WUHU216HW,2013-04-06 04:43:00,
2013-04-06 00:48:00,40.3,21.1,29.89,North,0,0.0,0.0,46,0.00,,,0.00,WUHU216HW,2013-04-06 04:48:00,
2013-04-06 00:53:00,40.3,21.1,29.89,North,0,0.0,0.0,46,0.00,,,0.00,WUHU216HW,2013-04-06 04:53:00,
2013-04-06 00:58:00,40.1,20.9,29.89,North,0,0.0,0.0,46,0.00,,,0.00,WUHU216HW,2013-04-06 04:58:00,
2013-04-06 01:03:00,40.1,21.4,29.90,North,0,0.0,0.0,47,0.00,,,0.00,WUHU216HW,2013-04-06 05:03:00,
2013-04-06 01:09:00,40.0,21.3,29.90,North,0,0.0,0.0,47,0.00,,,0.00,WUHU216HW,2013-04-06 05:09:00,
2013-04-06 01:14:00,40.1,21.9,29.90,North,0,0.0,0.0,48,0.00,,,0.00,WUHU216HW,2013-04-06 05:14:00,
2013-04-06 01:19:00,40.0,21.8,29.90,North,0,0.0,0.0,48,0.00,,,0.00,WUHU216HW,2013-04-06 05:19:00,
2013-04-06 01:24:00,40.0,21.8,29.91,North,0,0.0,0.0,48,0.00,,,0.00,WUHU216HW,2013-04-06 05:24:00,
2013-04-06 01:30:00,39.6,21.4,29.91,North,0,0.0,0.0,48,0.00,,,0.00,WUHU216HW,2013-04-06 05:30:00,
2013-04-06 01:35:00,39.4,21.8,29.91,North,0,0.0,0.0,49,0.00,,,0.00,WUHU216HW,2013-04-06 05:35:00,
2013-04-06 01:40:00,39.2,21.6,29.92,North,0,0.0,0.0,49,0.00,,,0.00,WUHU216HW,2013-04-06 05:40:00,
2013-04-06 01:45:00,38.9,21.3,29.92,North,0,0.0,0.0,49,0.00,,,0.00,WUHU216HW,2013-04-06 05:45:00,
2013-04-06 01:50:00,39.1,21.4,29.92,North,0,0.0,0.0,49,0.00,,,0.00,WUHU216HW,2013-04-06 05:50:00,
2013-04-06 01:55:00,38.9,21.3,29.92,North,0,0.0,0.0,49,0.00,,,0.00,WUHU216HW,2013-04-06 05:55:00,
2013-04-06 02:00:00,38.7,21.7,29.92,North,0,0.0,0.0,50,0.00,,,0.00,WUHU216HW,2013-04-06 06:00:00,
2013-04-06 02:05:00,38.9,21.8,29.92,North,0,0.0,0.0,50,0.00,,,0.00,WUHU216HW,2013-04-06 06:05:00,
2013-04-06 02:10:00,38.9,21.8,29.92,North,0,0.0,0.0,50,0.00,,,0.00,WUHU216HW,2013-04-06 06:10:00,
2013-04-06 02:15:00,38.7,21.7,29.93,North,0,0.0,0.0,50,0.00,,,0.00,WUHU216HW,2013-04-06 06:15:00,
2013-04-06 02:20:00,38.5,21.5,29.93,North,0,0.0,0.0,50,0.00,,,0.00,WUHU216HW,2013-04-06 06:20:00,
2013-04-06 02:25:00,38.5,21.5,29.93,North,0,0.0,0.0,50,0.00,,,0.00,WUHU216HW,2013-04-06 06:25:00,
2013-04-06 02:31:00,38.2,21.2,29.93,North,0,0.0,0.0,50,0.00,,,0.00,WUHU216HW,2013-04-06 06:31:00,
2013-04-06 02:36:00,38.0,21.4,29.93,North,0,0.0,0.0,51,0.00,,,0.00,WUHU216HW,2013-04-06 06:36:00,
2013-04-06 02:41:00,38.0,21.4,29.93,North,0,0.0,0.0,51,0.00,,,0.00,WUHU216HW,2013-04-06 06:41:00,
2013-04-06 02:46:00,38.2,21.6,29.93,North,0,0.0,0.0,51,0.00,,,0.00,WUHU216HW,2013-04-06 06:46:00,
2013-04-06 02:51:00,38.0,21.4,29.93,North,0,0.0,0.0,51,0.00,,,0.00,WUHU216HW,2013-04-06 06:51:00,
2013-04-06 02:56:00,37.8,21.2,29.93,North,0,0.0,0.0,51,0.00,,,0.00,WUHU216HW,2013-04-06 06:56:00,
2013-04-06 03:01:00,37.6,21.5,29.93,North,0,0.0,0.0,52,0.00,,,0.00,WUHU216HW,2013-04-06 07:01:00,
2013-04-06 03:06:00,37.6,21.2,29.93,North,0,0.0,0.0,51,0.00,,,0.00,WUHU216HW,2013-04-06 07:06:00,
2013-04-06 03:11:00,37.4,21.0,29.93,North,0,0.0,0.0,51,0.00,,,0.00,WUHU216HW,2013-04-06 07:11:00,
2013-04-06 03:16:00,37.1,21.1,29.94,North,0,0.0,0.0,52,0.00,,,0.00,WUHU216HW,2013-04-06 07:16:00,
2013-04-06 14:18:00,48.4,15.7,30.12,North,0,0.0,0.0,27,0.00,,,0.00,WUHU216HW,2013-04-06 18:18:00,
2013-04-06 14:23:00,48.6,17.7,30.12,North,0,0.0,0.0,29,0.00,,,0.00,WUHU216HW,2013-04-06 18:23:00,
2013-04-06 14:28:00,48.6,15.8,30.12,North,0,0.0,0.0,27,0.00,,,0.00,WUHU216HW,2013-04-06 18:28:00,
2013-04-06 14:33:00,49.0,18.0,30.12,North,0,0.0,0.0,29,0.00,,,0.00,WUHU216HW,2013-04-06 18:33:00,
2013-04-06 14:39:00,49.0,17.1,30.12,North,0,0.0,0.0,28,0.00,,,0.00,WUHU216HW,2013-04-06 18:39:00,
2013-04-06 14:44:00,49.0,17.1,30.12,North,0,0.0,0.0,28,0.00,,,0.00,WUHU216HW,2013-04-06 18:44:00,
2013-04-06 14:49:00,49.1,16.3,30.12,North,0,0.0,0.0,27,0.00,,,0.00,WUHU216HW,2013-04-06 18:49:00,
2013-04-06 14:54:00,49.3,16.5,30.11,North,0,0.0,0.0,27,0.00,,,0.00,WUHU216HW,2013-04-06 18:54:00,
2013-04-06 15:00:00,49.3,17.4,30.11,North,0,0.0,0.0,28,0.00,,,0.00,WUHU216HW,2013-04-06 19:00:00,
2013-04-06 15:05:00,50.0,18.0,30.11,North,0,0.0,0.0,28,0.00,,,0.00,WUHU216HW,2013-04-06 19:05:00,
2013-04-06 15:10:00,50.6,18.5,30.11,North,0,0.0,0.0,28,0.00,,,0.00,WUHU216HW,2013-04-06 19:10:00,
2013-04-06 15:15:00,50.9,18.7,30.11,North,0,0.0,0.0,28,0.00,,,0.00,WUHU216HW,2013-04-06 19:15:00,
2013-04-06 15:20:00,50.9,18.7,30.11,North,0,0.0,0.0,28,0.00,,,0.00,WUHU216HW,2013-04-06 19:20:00,
2013-04-06 15:25:00,50.8,18.6,30.11,North,0,0.0,0.0,28,0.00,,,0.00,WUHU216HW,2013-04-06 19:25:00,
2013-04-06 15:30:00,50.6,17.6,30.10,North,0,0.0,0.0,27,0.00,,,0.00,WUHU216HW,2013-04-06 19:30:00,
2013-04-06 15:35:00,50.2,17.2,30.11,North,0,0.0,0.0,27,0.00,,,0.00,WUHU216HW,2013-04-06 19:35:00,
2013-04-06 15:40:00,50.8,18.6,30.10,North,0,0.0,0.0,28,0.00,,,0.00,WUHU216HW,2013-04-06 19:40:00,
2013-04-06 15:46:00,50.9,16.0,30.10,North,0,0.0,0.0,25,0.00,,,0.00,WUHU216HW,2013-04-06 19:46:00,
2013-04-06 15:51:00,50.9,15.0,30.10,North,0,0.0,0.0,24,0.00,,,0.00,WUHU216HW,2013-04-06 19:51:00,
2013-04-06 15:56:00,50.9,18.7,30.10,North,0,0.0,0.0,28,0.00,,,0.00,WUHU216HW,2013-04-06 19:56:00,
2013-04-06 16:01:00,51.5,18.3,30.10,North,0,0.0,0.0,27,0.00,,,0.00,WUHU216HW,2013-04-06 20:01:00,
2013-04-06 16:06:00,51.8,18.6,30.10,North,0,0.0,0.0,27,0.00,,,0.00,WUHU216HW,2013-04-06 20:06:00,
2013-04-06 16:11:00,52.0,18.8,30.10,North,0,0.0,0.0,27,0.00,,,0.00,WUHU216HW,2013-04-06 20:11:00,
2013-04-06 16:16:00,52.2,18.9,30.10,North,0,0.0,0.0,27,0.00,,,0.00,WUHU216HW,2013-04-06 20:16:00,
2013-04-06 16:21:00,52.4,20.0,30.10,North,0,0.0,0.0,28,0.00,,,0.00,WUHU216HW,2013-04-06 20:21:00,
2013-04-06 16:26:00,52.4,17.2,30.09,North,0,0.0,0.0,25,0.00,,,0.00,WUHU216HW,2013-04-06 20:26:00,
2013-04-06 16:31:00,52.6,17.4,30.10,North,0,0.0,0.0,25,0.00,,,0.00,WUHU216HW,2013-04-06 20:31:00,
2013-04-06 16:36:00,52.7,19.4,30.10,North,0,0.0,0.0,27,0.00,,,0.00,WUHU216HW,2013-04-06 20:36:00,
2013-04-06 16:41:00,53.1,20.7,30.10,North,0,0.0,0.0,28,0.00,,,0.00,WUHU216HW,2013-04-06 20:41:00,
2013-04-06 16:46:00,52.9,19.5,30.10,North,0,0.0,0.0,27,0.00,,,0.00,WUHU216HW,2013-04-06 20:46:00,
2013-04-06 16:51:00,53.1,19.7,30.10,North,0,0.0,0.0,27,0.00,,,0.00,WUHU216HW,2013-04-06 20:51:00,
2013-04-06 16:57:00,52.9,19.5,30.10,North,0,0.0,0.0,27,0.00,,,0.00,WUHU216HW,2013-04-06 20:57:00,
2013-04-06 17:02:00,53.1,19.7,30.10,North,0,0.0,0.0,27,0.00,,,0.00,WUHU216HW,2013-04-06 21:02:00,
2013-04-06 17:07:00,53.3,19.9,30.10,North,0,0.0,0.0,27,0.00,,,0.00,WUHU216HW,2013-04-06 21:07:00,
2013-04-06 17:12:00,53.3,18.0,30.11,North,0,0.0,0.0,25,0.00,,,0.00,WUHU216HW,2013-04-06 21:12:00,
2013-04-06 17:17:00,53.3,19.9,30.11,North,0,0.0,0.0,27,0.00,,,0.00,WUHU216HW,2013-04-06 21:17:00,
2013-04-06 17:23:00,53.3,18.9,30.11,North,0,0.0,0.0,26,0.00,,,0.00,WUHU216HW,2013-04-06 21:23:00,
2013-04-06 17:28:00,53.3,18.0,30.11,North,0,0.0,0.0,25,0.00,,,0.00,WUHU216HW,2013-04-06 21:28:00,
2013-04-06 17:33:00,53.3,19.9,30.11,North,0,0.0,0.0,27,0.00,,,0.00,WUHU216HW,2013-04-06 21:33:00,
2013-04-06 17:38:00,53.3,18.0,30.11,North,0,0.0,0.0,25,0.00,,,0.00,WUHU216HW,2013-04-06 21:38:00,
2013-04-06 17:43:00,52.9,17.6,30.11,North,0,0.0,0.0,25,0.00,,,0.00,WUHU216HW,2013-04-06 21:43:00,
2013-04-06 17:48:00,52.9,19.5,30.11,North,0,0.0,0.0,27,0.00,,,0.00,WUHU216HW,2013-04-06 21:48:00,
2013-04-06 17:53:00,52.9,19.5,30.11,North,0,0.0,0.0,27,0.00,,,0.00,WUHU216HW,2013-04-06 21:53:00,
2013-04-06 17:58:00,52.9,19.5,30.11,North,0,0.0,0.0,27,0.00,,,0.00,WUHU216HW,2013-04-06 21:58:00,
2013-04-06 18:03:00,52.7,18.5,30.11,North,0,0.0,0.0,26,0.00,,,0.00,WUHU216HW,2013-04-06 22:03:00,
2013-04-06 18:08:00,53.3,20.8,30.11,North,0,0.0,0.0,28,0.00,,,0.00,WUHU216HW,2013-04-06 22:08:00,
2013-04-06 18:13:00,55.6,21.9,30.11,North,0,0.0,0.0,27,0.00,,,0.00,WUHU216HW,2013-04-06 22:13:00,
2013-04-06 18:18:00,56.0,20.3,30.11,North,0,0.0,0.0,25,0.00,,,0.00,WUHU216HW,2013-04-06 22:18:00,
2013-04-06 18:23:00,54.9,19.4,30.11,North,0,0.0,0.0,25,0.00,,,0.00,WUHU216HW,2013-04-06 22:23:00,
2013-04-06 18:29:00,53.8,18.5,30.11,North,0,0.0,0.0,25,0.00,,,0.00,WUHU216HW,2013-04-06 22:29:00,
2013-04-06 18:34:00,52.6,17.4,30.11,North,0,0.0,0.0,25,0.00,,,0.00,WUHU216HW,2013-04-06 22:34:00,
2013-04-06 18:39:00,51.8,18.6,30.11,North,0,0.0,0.0,27,0.00,,,0.00,WUHU216HW,2013-04-06 22:39:00,
2013-04-06 18:44:00,51.3,18.2,30.11,North,0,0.0,0.0,27,0.00,,,0.00,WUHU216HW,2013-04-06 22:44:00,
2013-04-06 18:49:00,50.8,19.5,30.12,North,0,0.0,0.0,29,0.00,,,0.00,WUHU216HW,2013-04-06 22:49:00,
2013-04-06 18:54:00,50.4,19.2,30.12,North,0,0.0,0.0,29,0.00,,,0.00,WUHU216HW,2013-04-06 22:54:00,
2013-04-06 18:59:00,49.9,19.6,30.12,North,0,0.0,0.0,30,0.00,,,0.00,WUHU216HW,2013-04-06 22:59:00,
2013-04-06 19:04:00,49.7,19.5,30.12,North,0,0.0,0.0,30,0.00,,,0.00,WUHU216HW,2013-04-06 23:04:00,
2013-04-06 19:09:00,49.1,19.7,30.11,North,0,0.0,0.0,31,0.00,,,0.00,WUHU216HW,2013-04-06 23:09:00,
2013-04-06 19:14:00,48.6,20.0,30.11,North,0,0.0,0.0,32,0.00,,,0.00,WUHU216HW,2013-04-06 23:14:00,
2013-04-06 19:19:00,47.9,19.4,30.12,North,0,0.0,0.0,32,0.00,,,0.00,WUHU216HW,2013-04-06 23:19:00,
2013-04-06 19:24:00,47.3,19.5,30.12,North,0,0.0,0.0,33,0.00,,,0.00,WUHU216HW,2013-04-06 23:24:00,
2013-04-06 19:29:00,46.8,20.4,30.12,North,0,0.0,0.0,35,0.00,,,0.00,WUHU216HW,2013-04-06 23:29:00,
2013-04-06 19:34:00,46.4,19.5,30.12,North,0,0.0,0.0,34,0.00,,,0.00,WUHU216HW,2013-04-06 23:34:00,
2013-04-06 19:39:00,45.9,18.3,30.12,North,0,0.0,0.0,33,0.00,,,0.00,WUHU216HW,2013-04-06 23:39:00,
2013-04-06 19:45:00,45.5,17.9,30.12,North,0,0.0,0.0,33,0.00,,,0.00,WUHU216HW,2013-04-06 23:45:00,
2013-04-06 19:50:00,45.2,18.3,30.12,North,0,0.0,0.0,34,0.00,,,0.00,WUHU216HW,2013-04-06 23:50:00,
2013-04-06 19:55:00,44.6,18.5,30.12,North,0,0.0,0.0,35,0.00,,,0.00,WUHU216HW,2013-04-06 23:55:00,
2013-04-06 20:00:00,44.3,18.1,30.12,North,0,0.0,0.0,35,0.00,,,0.00,WUHU216HW,2013-04-07 00:00:00,
2013-04-06 20:05:00,43.9,17.8,30.12,North,0,0.0,0.0,35,0.00,,,0.00,WUHU216HW,2013-04-07 00:05:00,
2013-04-06 20:10:00,43.6,18.2,30.12,North,0,0.0,0.0,36,0.00,,,0.00,WUHU216HW,2013-04-07 00:10:00,
2013-04-06 20:15:00,43.2,17.8,30.12,North,0,0.0,0.0,36,0.00,,,0.00,WUHU216HW,2013-04-07 00:15:00,
2013-04-06 20:20:00,43.0,17.6,30.13,North,0,0.0,0.0,36,0.00,,,0.00,WUHU216HW,2013-04-07 00:20:00,
2013-04-06 20:25:00,43.0,17.6,30.13,North,0,0.0,0.0,36,0.00,,,0.00,WUHU216HW,2013-04-07 00:25:00,
2013-04-06 20:30:00,43.0,17.6,30.13,North,0,0.0,0.0,36,0.00,,,0.00,WUHU216HW,2013-04-07 00:30:00,
2013-04-06 20:35:00,42.8,17.5,30.13,North,0,0.0,0.0,36,0.00,,,0.00,WUHU216HW,2013-04-07 00:35:00,
2013-04-06 20:40:00,42.5,17.2,30.12,North,0,0.0,0.0,36,0.00,,,0.00,WUHU216HW,2013-04-07 00:40:00,
2013-04-06 20:45:00,42.3,17.7,30.13,North,0,0.0,0.0,37,0.00,,,0.00,WUHU216HW,2013-04-07 00:45:00,
2013-04-06 20:50:00,41.9,17.4,30.13,North,0,0.0,0.0,37,0.00,,,0.00,WUHU216HW,2013-04-07 00:50:00,
2013-04-06 20:55:00,41.6,17.1,30.13,North,0,0.0,0.0,37,0.00,,,0.00,WUHU216HW,2013-04-07 00:55:00,
2013-04-06 21:01:00,41.2,16.7,30.13,North,0,0.0,0.0,37,0.00,,,0.00,WUHU216HW,2013-04-07 01:01:00,
2013-04-06 21:06:00,41.2,17.4,30.13,North,0,0.0,0.0,38,0.00,,,0.00,WUHU216HW,2013-04-07 01:06:00,
2013-04-06 21:11:00,41.0,17.3,30.13,North,0,0.0,0.0,38,0.00,,,0.00,WUHU216HW,2013-04-07 01:11:00,
2013-04-06 21:16:00,40.9,17.1,30.13,North,0,0.0,0.0,38,0.00,,,0.00,WUHU216HW,2013-04-07 01:16:00,
2013-04-06 21:21:00,40.5,16.7,30.13,North,0,0.0,0.0,38,0.00,,,0.00,WUHU216HW,2013-04-07 01:21:00,
2013-04-06 21:27:00,40.1,16.5,30.13,North,0,0.0,0.0,38,0.00,,,0.00,WUHU216HW,2013-04-07 01:27:00,
2013-04-06 21:32:00,39.8,16.7,30.13,North,0,0.0,0.0,39,0.00,,,0.00,WUHU216HW,2013-04-07 01:32:00,
2013-04-06 21:37:00,39.6,17.3,30.13,North,0,0.0,0.0,40,0.00,,,0.00,WUHU216HW,2013-04-07 01:37:00,
2013-04-06 21:42:00,40.1,18.8,30.13,North,0,0.0,0.0,42,0.00,,,0.00,WUHU216HW,2013-04-07 01:42:00,
2013-04-06 21:47:00,40.3,19.4,30.13,North,0,0.0,0.0,43,0.00,,,0.00,WUHU216HW,2013-04-07 01:47:00,
2013-04-06 21:52:00,40.0,18.6,30.13,North,0,0.0,0.0,42,0.00,,,0.00,WUHU216HW,2013-04-07 01:52:00,
2013-04-06 21:57:00,40.0,19.2,30.13,North,0,0.0,0.0,43,0.00,,,0.00,WUHU216HW,2013-04-07 01:57:00,
2013-04-06 22:02:00,40.0,20.2,30.14,North,0,0.0,0.0,45,0.00,,,0.00,WUHU216HW,2013-04-07 02:02:00,
2013-04-06 22:07:00,39.8,20.5,30.13,North,0,0.0,0.0,46,0.00,,,0.00,WUHU216HW,2013-04-07 02:07:00,
2013-04-06 22:12:00,39.8,22.2,30.13,North,0,0.0,0.0,49,0.00,,,0.00,WUHU216HW,2013-04-07 02:12:00,
2013-04-06 22:17:00,39.6,22.5,30.14,North,0,0.0,0.0,50,0.00,,,0.00,WUHU216HW,2013-04-07 02:17:00,
2013-04-06 22:22:00,39.6,24.2,30.14,North,0,0.0,0.0,54,0.00,,,0.00,WUHU216HW,2013-04-07 02:22:00,
2013-04-06 22:28:00,39.6,23.3,30.14,North,0,0.0,0.0,52,0.00,,,0.00,WUHU216HW,2013-04-07 02:28:00,
2013-04-06 22:33:00,39.4,24.0,30.14,North,0,0.0,0.0,54,0.00,,,0.00,WUHU216HW,2013-04-07 02:33:00,
2013-04-06 22:38:00,39.2,26.8,30.14,North,0,0.0,0.0,61,0.00,,,0.00,WUHU216HW,2013-04-07 02:38:00,
2013-04-06 22:43:00,39.2,24.8,30.14,North,0,0.0,0.0,56,0.00,,,0.00,WUHU216HW,2013-04-07 02:43:00,
2013-04-06 22:48:00,38.9,24.4,30.14,North,0,0.0,0.0,56,0.00,,,0.00,WUHU216HW,2013-04-07 02:48:00,
2013-04-06 22:53:00,38.7,26.4,30.14,North,0,0.0,0.0,61,0.00,,,0.00,WUHU216HW,2013-04-07 02:53:00,
2013-04-06 22:58:00,38.5,24.9,30.14,North,0,0.0,0.0,58,0.00,,,0.00,WUHU216HW,2013-04-07 02:58:00,
2013-04-06 23:03:00,38.5,26.9,30.14,North,0,0.0,0.0,63,0.00,,,0.00,WUHU216HW,2013-04-07 03:03:00,
2013-04-06 23:08:00,38.7,26.4,30.13,North,0,0.0,0.0,61,0.00,,,0.00,WUHU216HW,2013-04-07 03:08:00,
2013-04-06 23:13:00,38.5,25.4,30.14,North,0,0.0,0.0,59,0.00,,,0.00,WUHU216HW,2013-04-07 03:13:00,
2013-04-06 23:18:00,38.5,27.4,30.14,North,0,0.0,0.0,64,0.00,,,0.00,WUHU216HW,2013-04-07 03:18:00,
2013-04-06 23:23:00,38.5,26.6,30.14,North,0,0.0,0.0,62,0.00,,,0.00,WUHU216HW,2013-04-07 03:23:00,
2013-04-06 23:28:00,38.3,26.4,30.14,North,0,0.0,0.0,62,0.00,,,0.00,WUHU216HW,2013-04-07 03:28:00,
2013-04-06 23:34:00,38.2,26.7,30.14,North,0,0.0,0.0,63,0.00,,,0.00,WUHU216HW,2013-04-07 03:34:00,
2013-04-06 23:39:00,38.2,27.7,30.14,North,0,0.0,0.0,66,0.00,,,0.00,WUHU216HW,2013-04-07 03:39:00,
2013-04-06 23:44:00,38.2,27.0,30.13,North,0,0.0,0.0,64,0.00,,,0.00,WUHU216HW,2013-04-07 03:44:00,
2013-04-06 23:49:00,38.0,26.5,30.14,North,0,0.0,0.0,63,0.00,,,0.00,WUHU216HW,2013-04-07 03:49:00,
2013-04-06 23:54:00,37.8,26.3,30.14,North,0,0.0,0.0,63,0.00,,,0.00,WUHU216HW,2013-04-07 03:54:00,
2013-04-06 23:59:00,37.8,27.1,30.14,North,0,0.0,0.0,65,0.00,,,0.00,WUHU216HW,2013-04-07 03:59:00,